Terminal Aerodrome Forecast
Issued by NWS

Home | Current Version | Previous Version | Text Only | Print | Product List | Glossary On
Versions: 1 2 3 4 5 6 7 8 9 10 11 12 13 14 15 16 17 18 19 20 21 22 23 24 25 26 27 28 29 30 31 32 33 34 35 36 37 38 39 40 41 42 43 44 45 46 47 48 49 50
190
FTUS44 KHGX 282021 AAB
TAFUTS
TAF AMD
KUTS 282021Z 2820/2918 19008KT P6SM VCTS SCT040CB BKN080
      TEMPO 2820/2822 5SM -RA SCT040
     FM282300 17005KT P6SM BKN050 BKN120
     FM290900 VRB03KT P6SM SCT020
     FM291500 22005KT P6SM BKN035=

USA.gov is the U.S. government's official web portal to all federal, state and local government web resources and services.